Zlikha, Kazakhstan
Current Conditions -  °F | °C
As of 3:00 PM on Saturday 22 Nov 2014 (Local Time) from UAOO Reporting Station
Clear Clear  
Wind Chill: 39°   Ceiling: Unl
Heat Index: 39°   Visibility: 6mi
Dew Point:   Wind: 2mph
Humidity: 24%   Direction: NA
Pressure: 30.36"   Gusts: NA
Location:  45.25°N, 67.07°E
Report Text: UAOO 221000Z VRB01MPS CAVOK 04/M15 Q1028 R06/CLRD70 NOSIG RMKQFE759/1012
Loading
Personal Weather Stations






























Interactive Weather Map New forecast layout! Learn more

10-Day Weather Forecast

Advertisements
Track Severe Weather on mobile